Time;durP1;ratioP1;P1;durP2;ratioP2;P2;SDS_P1;SDS_P2;PMS_P1;PMS_P2;Temp;Humidity;BMP_temperature;BMP_pressure;BME280_temperature;BME280_humidity;BME280_pressure;Samples;Min_cycle;Max_cycle;Signal;HPM_P1;HPM_P2
2023/12/22 00:03:34;;;;;;;0.97;0.50;;;;;;;;;;4972944;28;20501;-86
2023/12/22 00:06:38;;;;;;;1.80;0.40;;;;;;;;;;4967129;29;20455;-87
2023/12/22 00:09:31;;;;;;;4.17;0.87;;;;;;;;;;4969373;28;20437;-87
2023/12/22 00:12:04;;;;;;;1.93;0.70;;;;;;;;;;4961614;28;21168;-85
2023/12/22 00:14:52;;;;;;;0.77;0.60;;;;;;;;;;4973514;28;20464;-86
2023/12/22 00:20:53;;;;;;;2.20;0.83;;;;;;;;;;4963347;28;20456;-84
2023/12/22 00:23:38;;;;;;;1.30;0.83;;;;;;;;;;4920735;28;20454;-85
2023/12/22 00:26:48;;;;;;;3.27;0.87;;;;;;;;;;4982397;28;20445;-84
2023/12/22 00:29:44;;;;;;;2.50;1.00;;;;;;;;;;4973062;28;20458;-88
2023/12/22 01:01:43;;;;;;;4.30;1.90;;;;;;;;;;4999871;28;20505;-85
2023/12/22 01:08:27;;;;;;;3.27;1.00;;;;;;;;;;4993673;28;20481;-85
2023/12/22 01:18:18;;;;;;;3.67;0.97;;;;;;;;;;4957608;28;20392;-83
2023/12/22 01:21:29;;;;;;;1.63;1.10;;;;;;;;;;4957870;28;20524;-86
2023/12/22 01:24:06;;;;;;;3.03;1.30;;;;;;;;;;4965232;28;20472;-85
2023/12/22 01:26:48;;;;;;;3.33;0.90;;;;;;;;;;4964237;28;20500;-86
2023/12/22 01:29:26;;;;;;;3.70;1.13;;;;;;;;;;4963258;28;20553;-87
2023/12/22 01:32:24;;;;;;;3.43;1.10;;;;;;;;;;4961551;29;20466;-85
2023/12/22 01:35:06;;;;;;;4.20;1.07;;;;;;;;;;4970149;28;20481;-87
2023/12/22 01:38:12;;;;;;;9.37;1.17;;;;;;;;;;4962320;28;20982;-86
2023/12/22 01:41:13;;;;;;;4.23;0.83;;;;;;;;;;4972287;28;20520;-85
2023/12/22 01:44:55;;;;;;;4.27;1.73;;;;;;;;;;4962758;28;20453;-87
2023/12/22 01:47:18;;;;;;;1.33;0.80;;;;;;;;;;4938795;28;20468;-87
2023/12/22 01:53:35;;;;;;;7.60;1.40;;;;;;;;;;4929570;29;20471;-88
2023/12/22 01:56:34;;;;;;;7.77;1.37;;;;;;;;;;4885714;29;20451;-89
2023/12/22 01:59:21;;;;;;;6.07;1.83;;;;;;;;;;4898858;29;20441;-87
2023/12/22 02:02:49;;;;;;;3.57;1.20;;;;;;;;;;4911421;29;20423;-87
2023/12/22 02:05:29;;;;;;;2.87;0.83;;;;;;;;;;4874390;29;20451;-88
2023/12/22 02:08:15;;;;;;;3.03;1.07;;;;;;;;;;4910518;29;20455;-87
2023/12/22 02:11:09;;;;;;;6.30;1.40;;;;;;;;;;4917398;29;20494;-86
2023/12/22 02:14:02;;;;;;;3.00;1.43;;;;;;;;;;4911253;29;20487;-86
2023/12/22 02:17:14;;;;;;;2.70;1.20;;;;;;;;;;4890662;29;20518;-85
2023/12/22 02:20:04;;;;;;;3.33;1.30;;;;;;;;;;4845080;29;20471;-89
2023/12/22 02:23:50;;;;;;;6.67;1.30;;;;;;;;;;4855316;29;20451;-85
2023/12/22 02:26:58;;;;;;;5.87;0.80;;;;;;;;;;4936855;29;20463;-87
2023/12/22 02:29:30;;;;;;;6.60;1.77;;;;;;;;;;4954246;28;20446;-85
2023/12/22 02:32:23;;;;;;;2.73;0.97;;;;;;;;;;4956643;29;20904;-87
2023/12/22 02:35:02;;;;;;;10.47;2.47;;;;;;;;;;4950168;28;20564;-87
2023/12/22 02:40:45;;;;;;;5.63;1.47;;;;;;;;;;4945762;28;20458;-87
2023/12/22 02:43:35;;;;;;;5.77;1.70;;;;;;;;;;4953806;29;20535;-87
2023/12/22 02:46:45;;;;;;;3.13;1.20;;;;;;;;;;4968340;28;20440;-87
2023/12/22 02:49:35;;;;;;;4.80;1.63;;;;;;;;;;4948046;28;20543;-87
2023/12/22 02:52:26;;;;;;;5.73;2.17;;;;;;;;;;4968395;28;20887;-88
2023/12/22 02:58:17;;;;;;;3.80;1.10;;;;;;;;;;4959265;28;20469;-88
2023/12/22 03:01:06;;;;;;;3.43;1.10;;;;;;;;;;4953829;29;20465;-85
2023/12/22 03:03:54;;;;;;;13.57;2.80;;;;;;;;;;4960133;28;20520;-85
2023/12/22 03:06:39;;;;;;;6.30;1.33;;;;;;;;;;4965856;28;20476;-87
2023/12/22 03:09:36;;;;;;;1.63;1.13;;;;;;;;;;4951522;28;20943;-86
2023/12/22 03:12:28;;;;;;;7.70;1.70;;;;;;;;;;4954664;29;20476;-86
2023/12/22 03:15:34;;;;;;;4.80;1.63;;;;;;;;;;4916897;29;20531;-87
2023/12/22 03:25:27;;;;;;;8.43;1.53;;;;;;;;;;4908289;29;20493;-88
2023/12/22 03:28:26;;;;;;;4.13;1.40;;;;;;;;;;4907553;29;20601;-87
2023/12/22 03:31:22;;;;;;;4.87;1.57;;;;;;;;;;4910846;29;20504;-87
2023/12/22 03:34:09;;;;;;;6.83;1.13;;;;;;;;;;4904093;29;20503;-87
2023/12/22 03:36:50;;;;;;;2.43;1.23;;;;;;;;;;4892870;29;20456;-88
2023/12/22 03:49:29;;;;;;;7.10;2.23;;;;;;;;;;4894683;29;20961;-86
2023/12/22 03:55:05;;;;;;;4.27;2.30;;;;;;;;;;4972230;28;20464;-87
2023/12/22 03:58:25;;;;;;;;;;;;;;;;;;;;;
2023/12/22 04:01:07;;;;;;;6.10;1.83;;;;;;;;;;4971256;28;20457;-88
2023/12/22 04:04:15;;;;;;;9.17;2.00;;;;;;;;;;4967545;28;20488;-87
2023/12/22 04:06:58;;;;;;;5.87;1.83;;;;;;;;;;4953060;28;20469;-85
2023/12/22 04:10:01;;;;;;;7.43;1.50;;;;;;;;;;4976797;28;20460;-88
2023/12/22 04:12:32;;;;;;;4.63;1.40;;;;;;;;;;4973618;28;20504;-89
2023/12/22 04:15:21;;;;;;;4.80;1.50;;;;;;;;;;4964489;28;20493;-85
2023/12/22 04:17:52;;;;;;;5.17;1.20;;;;;;;;;;4960380;28;20820;-86
2023/12/22 04:20:40;;;;;;;4.40;1.40;;;;;;;;;;4970361;28;20453;-86
2023/12/22 04:23:11;;;;;;;8.80;1.73;;;;;;;;;;4951375;28;20442;-87
2023/12/22 04:26:02;;;;;;;3.77;1.73;;;;;;;;;;4907687;28;20455;-87
2023/12/22 04:28:57;;;;;;;7.20;1.93;;;;;;;;;;4967715;28;20484;-87
2023/12/22 04:31:38;;;;;;;13.93;1.70;;;;;;;;;;4967555;28;20528;-87
2023/12/22 04:34:23;;;;;;;5.70;1.90;;;;;;;;;;4952793;28;20498;-86
2023/12/22 04:37:09;;;;;;;3.50;1.50;;;;;;;;;;4970848;28;20446;-88
2023/12/22 04:43:10;;;;;;;3.20;1.30;;;;;;;;;;4960495;28;20929;-87
2023/12/22 04:45:53;;;;;;;;;;;;;;;;;;;;;
2023/12/22 04:48:41;;;;;;;4.10;1.70;;;;;;;;;;4977538;28;20457;-87
2023/12/22 04:51:26;;;;;;;10.63;1.97;;;;;;;;;;4963634;28;20473;-88
2023/12/22 04:54:15;;;;;;;5.10;2.20;;;;;;;;;;4956526;28;20541;-87
2023/12/22 04:57:11;;;;;;;7.53;1.67;;;;;;;;;;4956371;28;20469;-85
2023/12/22 05:03:15;;;;;;;5.43;1.37;;;;;;;;;;4983856;28;20486;-87
2023/12/22 05:05:46;;;;;;;5.00;2.00;;;;;;;;;;4969006;28;20607;-87
2023/12/22 05:08:44;;;;;;;7.73;1.30;;;;;;;;;;4978928;28;20477;-88
2023/12/22 05:11:25;;;;;;;11.60;1.80;;;;;;;;;;4967599;28;20544;-87
2023/12/22 05:14:06;;;;;;;7.37;1.63;;;;;;;;;;4964074;28;20485;-86
2023/12/22 05:17:07;;;;;;;5.20;1.53;;;;;;;;;;4972212;29;20435;-87
2023/12/22 05:19:42;;;;;;;7.83;2.13;;;;;;;;;;4971961;28;20483;-86
2023/12/22 05:22:19;;;;;;;7.60;1.70;;;;;;;;;;4977872;28;20445;-87
2023/12/22 05:25:11;;;;;;;8.40;2.83;;;;;;;;;;4966391;28;20459;-87
2023/12/22 05:28:09;;;;;;;5.20;1.73;;;;;;;;;;4954065;28;20440;-87
2023/12/22 05:31:04;;;;;;;7.60;2.20;;;;;;;;;;4966258;28;20448;-87
2023/12/22 05:33:35;;;;;;;12.57;2.57;;;;;;;;;;4968197;28;20485;-87
2023/12/22 05:36:39;;;;;;;6.53;2.50;;;;;;;;;;4955123;28;20466;-86
2023/12/22 05:42:54;;;;;;;3.40;2.00;;;;;;;;;;4979633;28;20432;-87
2023/12/22 05:45:38;;;;;;;5.27;1.47;;;;;;;;;;4953225;28;20457;-86
2023/12/22 05:51:43;;;;;;;4.40;1.47;;;;;;;;;;4982790;28;20460;-84
2023/12/22 05:57:41;;;;;;;6.43;1.97;;;;;;;;;;4970677;28;20389;-87
2023/12/22 06:00:15;;;;;;;10.73;1.90;;;;;;;;;;4962337;28;20443;-86
2023/12/22 06:02:55;;;;;;;;;;;;;;;;;;;;;
2023/12/22 06:05:30;;;;;;;7.40;1.83;;;;;;;;;;4971369;28;20445;-85
2023/12/22 06:08:09;;;;;;;8.40;2.27;;;;;;;;;;4963986;28;20449;-86
2023/12/22 06:10:57;;;;;;;5.80;1.70;;;;;;;;;;4972938;28;20523;-87
2023/12/22 06:13:49;;;;;;;7.70;2.60;;;;;;;;;;4979024;28;20492;-86
2023/12/22 06:16:19;;;;;;;5.90;1.83;;;;;;;;;;4970335;28;20473;-86
2023/12/22 06:19:28;;;;;;;7.63;2.60;;;;;;;;;;4979615;28;20460;-88
2023/12/22 06:22:05;;;;;;;5.00;1.87;;;;;;;;;;4972767;28;20456;-88
2023/12/22 06:24:39;;;;;;;12.00;4.27;;;;;;;;;;4978045;28;20474;-88
2023/12/22 06:27:22;;;;;;;12.00;3.07;;;;;;;;;;4959295;28;20429;-87
2023/12/22 06:30:06;;;;;;;3.30;1.90;;;;;;;;;;4968008;28;20441;-87
2023/12/22 06:33:20;;;;;;;4.90;1.47;;;;;;;;;;5200788;27;20281;-87
2023/12/22 06:39:51;;;;;;;5.93;1.93;;;;;;;;;;5044616;27;3324459;-88
2023/12/22 06:42:33;;;;;;;6.63;2.03;;;;;;;;;;5151133;27;20187;-87
2023/12/22 06:45:28;;;;;;;10.27;2.23;;;;;;;;;;5147838;27;20447;-87
2023/12/22 06:48:15;;;;;;;3.67;1.77;;;;;;;;;;5148946;27;20441;-87
2023/12/22 06:51:01;;;;;;;4.30;1.50;;;;;;;;;;5153706;27;20460;-87
2023/12/22 06:53:49;;;;;;;5.07;1.40;;;;;;;;;;5164159;27;20495;-86
2023/12/22 06:56:31;;;;;;;3.27;1.63;;;;;;;;;;5151290;27;20502;-86
2023/12/22 06:59:14;;;;;;;2.20;0.70;;;;;;;;;;5185231;27;20461;-85
2023/12/22 07:05:42;;;;;;;3.10;0.90;;;;;;;;;;5105620;28;20452;-88
2023/12/22 07:08:25;;;;;;;1.83;0.80;;;;;;;;;;5120589;27;20516;-87
2023/12/22 07:11:25;;;;;;;4.37;1.10;;;;;;;;;;5140159;27;20492;-89
2023/12/22 07:17:37;;;;;;;4.70;1.27;;;;;;;;;;5161654;27;20471;-89
2023/12/22 07:32:51;;;;;;;8.50;2.20;;;;;;;;;;5042297;28;20442;-86
2023/12/22 07:35:32;;;;;;;4.83;2.03;;;;;;;;;;5007478;28;20446;-86
2023/12/22 07:42:06;;;;;;;7.37;2.40;;;;;;;;;;5031296;28;20434;-86
2023/12/22 07:45:00;;;;;;;5.13;2.47;;;;;;;;;;4995256;28;20506;-85
2023/12/22 07:51:16;;;;;;;9.40;2.80;;;;;;;;;;5013621;28;20403;-87
2023/12/22 07:54:22;;;;;;;10.13;4.27;;;;;;;;;;4997652;28;20505;-87
2023/12/22 07:57:07;;;;;;;9.47;1.90;;;;;;;;;;4994615;28;20463;-87
2023/12/22 07:59:58;;;;;;;16.60;3.27;;;;;;;;;;5000525;28;20432;-88
2023/12/22 08:02:52;;;;;;;8.20;2.23;;;;;;;;;;4978800;28;20423;-87
2023/12/22 08:06:10;;;;;;;9.60;3.00;;;;;;;;;;4995641;28;20443;-87
2023/12/22 08:08:56;;;;;;;;;;;;;;;;;;;;;
2023/12/22 08:11:35;;;;;;;11.20;3.43;;;;;;;;;;5018552;28;20470;-88
2023/12/22 08:14:15;;;;;;;7.83;2.47;;;;;;;;;;5003268;28;20531;-85
2023/12/22 08:20:20;;;;;;;7.90;2.20;;;;;;;;;;5012925;28;20402;-87
2023/12/22 08:23:02;;;;;;;12.03;2.10;;;;;;;;;;4987378;28;20479;-86
2023/12/22 08:25:41;;;;;;;4.30;1.50;;;;;;;;;;5000827;28;20452;-86
2023/12/22 08:28:21;;;;;;;3.60;2.30;;;;;;;;;;4985930;28;20490;-87
2023/12/22 08:34:44;;;;;;;13.40;4.00;;;;;;;;;;4913445;29;20450;-85
2023/12/22 08:37:46;;;;;;;10.97;4.30;;;;;;;;;;4909702;29;20496;-86
2023/12/22 08:40:35;;;;;;;12.83;5.47;;;;;;;;;;4916710;29;20436;-88
2023/12/22 08:43:27;;;;;;;17.03;3.90;;;;;;;;;;4921972;29;20549;-88
2023/12/22 08:46:09;;;;;;;12.93;3.77;;;;;;;;;;4996863;28;20447;-89
2023/12/22 08:48:41;;;;;;;8.10;2.60;;;;;;;;;;4984177;28;20490;-88
2023/12/22 08:51:28;;;;;;;8.50;3.73;;;;;;;;;;4999936;28;20522;-85
2023/12/22 08:54:13;;;;;;;17.77;3.20;;;;;;;;;;4959959;28;20477;-84
2023/12/22 08:56:43;;;;;;;10.17;3.20;;;;;;;;;;5001344;28;20474;-86
2023/12/22 08:59:31;;;;;;;8.97;2.87;;;;;;;;;;5000126;28;20451;-86
2023/12/22 09:02:19;;;;;;;16.30;3.30;;;;;;;;;;4990706;28;20464;-88
2023/12/22 09:05:00;;;;;;;10.27;3.57;;;;;;;;;;4996548;28;20469;-88
2023/12/22 09:07:45;;;;;;;10.00;3.27;;;;;;;;;;4997740;28;20456;-89
2023/12/22 09:10:21;;;;;;;9.20;2.83;;;;;;;;;;5013192;28;20490;-88
2023/12/22 09:13:08;;;;;;;14.80;3.90;;;;;;;;;;4934963;28;20478;-88
2023/12/22 09:15:56;;;;;;;;;;;;;;;;;;;;;
2023/12/22 09:18:42;;;;;;;14.73;3.97;;;;;;;;;;4957200;28;20442;-88
2023/12/22 09:21:14;;;;;;;12.30;3.43;;;;;;;;;;4955594;28;20467;-90
2023/12/22 09:23:46;;;;;;;10.50;3.50;;;;;;;;;;4957162;28;20529;-88
2023/12/22 09:26:35;;;;;;;10.60;4.00;;;;;;;;;;4926226;28;20474;-90
2023/12/22 09:29:22;;;;;;;14.23;3.67;;;;;;;;;;4906507;29;20538;-86
2023/12/22 09:32:00;;;;;;;9.80;3.17;;;;;;;;;;4937154;28;20485;-88
2023/12/22 09:35:00;;;;;;;10.37;2.90;;;;;;;;;;4944430;28;20527;-87
2023/12/22 09:37:39;;;;;;;13.97;3.10;;;;;;;;;;4958229;28;20478;-85
2023/12/22 09:40:25;;;;;;;6.97;2.80;;;;;;;;;;4953664;28;20464;-86
2023/12/22 09:43:07;;;;;;;7.40;2.87;;;;;;;;;;4950725;28;20458;-86
2023/12/22 09:45:46;;;;;;;6.73;3.17;;;;;;;;;;4957353;28;20455;-88
2023/12/22 09:48:46;;;;;;;13.20;2.70;;;;;;;;;;4957965;28;20474;-86
2023/12/22 09:51:37;;;;;;;7.80;2.47;;;;;;;;;;4993919;28;20466;-88
2023/12/22 09:54:34;;;;;;;6.50;2.70;;;;;;;;;;4989212;28;20457;-88
2023/12/22 09:57:12;;;;;;;9.73;2.70;;;;;;;;;;4987658;28;20462;-89
2023/12/22 09:59:52;;;;;;;7.97;2.30;;;;;;;;;;4998145;28;20447;-87
2023/12/22 10:02:31;;;;;;;5.17;1.70;;;;;;;;;;4994184;28;20490;-88
2023/12/22 10:05:22;;;;;;;5.83;2.50;;;;;;;;;;4984325;28;20460;-89
2023/12/22 10:08:16;;;;;;;8.30;2.00;;;;;;;;;;4990091;28;20523;-90
2023/12/22 10:11:07;;;;;;;7.47;3.00;;;;;;;;;;5012920;28;20446;-88
2023/12/22 10:14:04;;;;;;;6.10;2.17;;;;;;;;;;4987055;28;20468;-89
2023/12/22 10:16:57;;;;;;;7.03;2.57;;;;;;;;;;4992815;28;20466;-89
2023/12/22 10:19:34;;;;;;;8.20;2.70;;;;;;;;;;4991815;28;20482;-88
2023/12/22 10:22:09;;;;;;;6.10;2.30;;;;;;;;;;4987658;28;20441;-90
2023/12/22 10:24:59;;;;;;;4.10;3.03;;;;;;;;;;4994905;28;20468;-89
2023/12/22 10:27:45;;;;;;;6.60;2.90;;;;;;;;;;4986930;28;20439;-89
2023/12/22 10:30:43;;;;;;;7.63;2.67;;;;;;;;;;4988567;28;20436;-87
2023/12/22 10:33:12;;;;;;;6.23;1.50;;;;;;;;;;4993203;28;20471;-88
2023/12/22 10:35:53;;;;;;;3.80;1.27;;;;;;;;;;4989128;28;20463;-87
2023/12/22 10:38:52;;;;;;;2.50;1.60;;;;;;;;;;4992787;28;20436;-87
2023/12/22 10:41:49;;;;;;;4.70;1.30;;;;;;;;;;4994554;28;20451;-89
2023/12/22 10:44:49;;;;;;;2.50;1.23;;;;;;;;;;4983578;28;20576;-86
2023/12/22 10:47:22;;;;;;;3.33;1.40;;;;;;;;;;4992950;28;20492;-88
2023/12/22 10:50:13;;;;;;;2.80;1.20;;;;;;;;;;4993693;28;20530;-86
2023/12/22 10:53:09;;;;;;;2.83;1.73;;;;;;;;;;4984898;28;20491;-87
2023/12/22 10:55:53;;;;;;;;;;;;;;;;;;;;;
2023/12/22 10:58:49;;;;;;;1.40;1.30;;;;;;;;;;4987358;28;20447;-88
2023/12/22 11:01:39;;;;;;;4.20;1.40;;;;;;;;;;4994404;28;20463;-88
2023/12/22 11:04:35;;;;;;;1.80;1.40;;;;;;;;;;4982988;28;20441;-89
2023/12/22 11:10:59;;;;;;;1.50;1.40;;;;;;;;;;4998063;28;20444;-85
2023/12/22 11:13:43;;;;;;;1.37;1.27;;;;;;;;;;5000279;28;20479;-85
2023/12/22 11:16:23;;;;;;;3.37;1.10;;;;;;;;;;4984279;28;20467;-88
2023/12/22 11:19:02;;;;;;;2.00;1.00;;;;;;;;;;4998257;28;20447;-89
2023/12/22 11:21:43;;;;;;;1.17;1.10;;;;;;;;;;4987137;28;20439;-88
2023/12/22 11:24:41;;;;;;;1.30;1.20;;;;;;;;;;4985537;28;20455;-87
2023/12/22 11:31:01;;;;;;;1.57;1.30;;;;;;;;;;5003167;28;20458;-85
2023/12/22 11:33:44;;;;;;;2.03;1.50;;;;;;;;;;4994567;28;20496;-84
2023/12/22 11:36:35;;;;;;;1.50;1.40;;;;;;;;;;5002531;28;20499;-87
2023/12/22 11:39:25;;;;;;;3.17;1.70;;;;;;;;;;4991001;28;20426;-87
2023/12/22 11:42:27;;;;;;;3.47;3.20;;;;;;;;;;4890367;29;20484;-87
2023/12/22 11:45:44;;;;;;;1.53;1.40;;;;;;;;;;4884441;29;20491;-86
2023/12/22 11:48:48;;;;;;;1.53;1.30;;;;;;;;;;4875621;29;20470;-87
2023/12/22 11:52:18;;;;;;;1.40;1.23;;;;;;;;;;4906569;29;20456;-85
2023/12/22 11:55:14;;;;;;;2.30;1.20;;;;;;;;;;4811428;29;20498;-87
2023/12/22 11:57:49;;;;;;;2.00;1.37;;;;;;;;;;4810868;29;20459;-87
2023/12/22 12:00:58;;;;;;;1.37;1.00;;;;;;;;;;4830539;29;20512;-86
2023/12/22 12:12:10;;;;;;;;;;;;;;;;;;;;;
2023/12/22 12:15:26;;;;;;;;;;;;;;;;;;;;;
2023/12/22 12:21:38;;;;;;;1.20;1.10;;;;;;;;;;4993151;28;20447;-85
2023/12/22 12:24:45;;;;;;;3.03;1.40;;;;;;;;;;4973224;28;20487;-87
2023/12/22 12:27:41;;;;;;;2.77;1.63;;;;;;;;;;4961282;28;20528;-87
2023/12/22 12:30:49;;;;;;;2.00;1.30;;;;;;;;;;4981009;28;20448;-86
2023/12/22 12:34:34;;;;;;;;;;;;;;;;;;;;;
2023/12/22 12:40:49;;;;;;;1.53;1.03;;;;;;;;;;4905759;29;20443;-88
2023/12/22 12:43:56;;;;;;;2.60;1.23;;;;;;;;;;4954394;22;20491;-86
2023/12/22 12:46:37;;;;;;;2.07;1.60;;;;;;;;;;5018881;28;20462;-86
2023/12/22 12:49:17;;;;;;;2.77;1.60;;;;;;;;;;5020537;28;20441;-87
2023/12/22 12:52:31;;;;;;;5.03;1.50;;;;;;;;;;5029451;28;20510;-85
2023/12/22 12:55:28;;;;;;;1.00;1.00;;;;;;;;;;4939202;29;20878;-85
2023/12/22 12:58:12;;;;;;;2.10;1.00;;;;;;;;;;5029074;28;20526;-86
2023/12/22 13:01:04;;;;;;;1.33;1.20;;;;;;;;;;5042050;28;20475;-86
2023/12/22 13:03:57;;;;;;;1.50;1.30;;;;;;;;;;5035838;28;20528;-86
2023/12/22 13:12:46;;;;;;;1.43;1.10;;;;;;;;;;5604500;23;20500;-87
2023/12/22 13:23:31;;;;;;;2.20;2.00;;;;;;;;;;5073500;23;20520;-87
2023/12/22 13:26:35;;;;;;;1.30;1.20;;;;;;;;;;4913976;29;20510;-86
2023/12/22 13:29:40;;;;;;;1.83;0.90;;;;;;;;;;4908128;29;20443;-84
2023/12/22 13:32:33;;;;;;;1.97;1.10;;;;;;;;;;4919934;29;20486;-86
2023/12/22 13:35:36;;;;;;;;;;;;;;;;;;;;;
2023/12/22 13:38:40;;;;;;;0.90;0.90;;;;;;;;;;4904672;29;20454;-86
2023/12/22 13:41:34;;;;;;;1.43;1.20;;;;;;;;;;4927185;28;20452;-87
2023/12/22 13:44:46;;;;;;;3.13;1.70;;;;;;;;;;4930869;28;20484;-88
2023/12/22 13:47:40;;;;;;;3.50;1.37;;;;;;;;;;4907159;29;21156;-86
2023/12/22 13:50:36;;;;;;;1.17;0.80;;;;;;;;;;4927592;29;20524;-87
2023/12/22 13:53:38;;;;;;;3.47;1.80;;;;;;;;;;4929443;28;20540;-86
2023/12/22 14:03:06;;;;;;;7.83;1.87;;;;;;;;;;4929164;28;20476;-86
2023/12/22 14:06:03;;;;;;;2.73;1.40;;;;;;;;;;4989418;28;20490;-87
2023/12/22 14:09:01;;;;;;;4.23;1.40;;;;;;;;;;4986006;28;21055;-87
2023/12/22 14:11:40;;;;;;;2.60;1.63;;;;;;;;;;4978101;28;20467;-87
2023/12/22 14:14:24;;;;;;;6.33;2.20;;;;;;;;;;4987665;28;20507;-87
2023/12/22 14:17:15;;;;;;;2.73;1.03;;;;;;;;;;4975976;28;20456;-88
2023/12/22 14:23:28;;;;;;;3.73;1.20;;;;;;;;;;4978436;28;20463;-87
2023/12/22 14:26:03;;;;;;;5.03;1.10;;;;;;;;;;4982539;28;21243;-87
2023/12/22 14:28:54;;;;;;;5.67;1.53;;;;;;;;;;4976334;28;20464;-86
2023/12/22 14:32:04;;;;;;;2.50;1.17;;;;;;;;;;4979375;28;20481;-86
2023/12/22 14:35:12;;;;;;;4.13;2.00;;;;;;;;;;4944982;28;20605;-87
2023/12/22 14:37:52;;;;;;;2.80;1.20;;;;;;;;;;4970357;28;20557;-87
2023/12/22 14:40:27;;;;;;;5.10;1.03;;;;;;;;;;4978337;28;20450;-87
2023/12/22 14:43:15;;;;;;;4.20;1.30;;;;;;;;;;4981891;28;20477;-85
2023/12/22 14:46:13;;;;;;;7.83;1.40;;;;;;;;;;4974099;28;20429;-85
2023/12/22 14:49:12;;;;;;;;;;;;;;;;;;;;;
2023/12/22 14:55:37;;;;;;;2.93;1.10;;;;;;;;;;4980073;28;20450;-83
2023/12/22 14:58:22;;;;;;;6.40;1.30;;;;;;;;;;4992847;28;20455;-84
2023/12/22 15:01:04;;;;;;;2.73;2.00;;;;;;;;;;4980962;28;20508;-83
2023/12/22 15:04:02;;;;;;;3.50;1.53;;;;;;;;;;4979104;28;20479;-86
2023/12/22 15:06:46;;;;;;;2.67;1.40;;;;;;;;;;4986242;28;20460;-87
2023/12/22 15:09:46;;;;;;;3.10;1.30;;;;;;;;;;4990668;28;20558;-86
2023/12/22 15:12:37;;;;;;;5.33;1.37;;;;;;;;;;4987362;28;20444;-85
2023/12/22 15:18:41;;;;;;;2.60;1.20;;;;;;;;;;4950869;28;20525;-86
2023/12/22 15:35:04;;;;;;;3.53;1.00;;;;;;;;;;4992079;28;20484;-86
2023/12/22 15:38:09;;;;;;;2.20;1.00;;;;;;;;;;4967278;28;20464;-88
2023/12/22 15:41:09;;;;;;;1.40;0.90;;;;;;;;;;4966007;28;20511;-87
2023/12/22 15:44:33;;;;;;;3.27;2.10;;;;;;;;;;4909071;29;20454;-85
2023/12/22 15:47:08;;;;;;;3.30;1.30;;;;;;;;;;4904681;29;20463;-85
2023/12/22 15:50:05;;;;;;;3.10;1.50;;;;;;;;;;4909591;29;20435;-86
2023/12/22 15:52:55;;;;;;;2.00;1.53;;;;;;;;;;4919061;28;20514;-87
2023/12/22 15:55:45;;;;;;;2.53;0.90;;;;;;;;;;4964842;28;20462;-83
2023/12/22 15:58:43;;;;;;;;;;;;;;;;;;;;;
2023/12/22 16:01:33;;;;;;;3.50;1.87;;;;;;;;;;4979290;28;20480;-83
2023/12/22 16:04:18;;;;;;;3.37;1.70;;;;;;;;;;4949708;28;20458;-82
2023/12/22 16:07:14;;;;;;;4.83;1.40;;;;;;;;;;4976186;28;21094;-86
2023/12/22 16:10:09;;;;;;;1.87;1.20;;;;;;;;;;4975483;28;20457;-84
2023/12/22 16:13:06;;;;;;;3.60;1.43;;;;;;;;;;4970481;28;20471;-84
2023/12/22 16:16:06;;;;;;;2.30;2.10;;;;;;;;;;4979254;28;20959;-86
2023/12/22 16:18:52;;;;;;;3.17;1.10;;;;;;;;;;4962725;28;20458;-86
2023/12/22 16:21:29;;;;;;;1.63;1.07;;;;;;;;;;4967337;28;20480;-87
2023/12/22 16:27:18;;;;;;;2.93;1.93;;;;;;;;;;4969900;28;20460;-85
2023/12/22 16:30:11;;;;;;;5.80;1.50;;;;;;;;;;4970457;28;20526;-86
2023/12/22 16:33:00;;;;;;;2.43;1.20;;;;;;;;;;4983666;28;20543;-86
2023/12/22 16:35:42;;;;;;;1.87;1.43;;;;;;;;;;4965374;28;20450;-88
2023/12/22 16:38:47;;;;;;;3.27;1.30;;;;;;;;;;4951534;28;20461;-86
2023/12/22 16:41:42;;;;;;;2.03;1.60;;;;;;;;;;4983499;28;20448;-86
2023/12/22 16:44:30;;;;;;;6.70;1.57;;;;;;;;;;4978160;28;20491;-89
2023/12/22 16:47:20;;;;;;;3.63;1.40;;;;;;;;;;4964810;28;20511;-85
2023/12/22 16:50:04;;;;;;;4.33;1.37;;;;;;;;;;4984860;28;20541;-86
2023/12/22 16:52:45;;;;;;;4.30;1.67;;;;;;;;;;4969179;28;20420;-89
2023/12/22 16:55:32;;;;;;;3.83;1.90;;;;;;;;;;4912673;28;20469;-86
2023/12/22 16:58:06;;;;;;;7.63;1.77;;;;;;;;;;4985849;28;20456;-86
2023/12/22 17:00:56;;;;;;;2.97;1.20;;;;;;;;;;4984691;28;20444;-88
2023/12/22 17:03:41;;;;;;;3.83;1.90;;;;;;;;;;4976330;28;20479;-88
2023/12/22 17:06:24;;;;;;;8.07;1.73;;;;;;;;;;4948746;29;20490;-87
2023/12/22 17:09:21;;;;;;;;;;;;;;;;;;;;;
2023/12/22 17:12:29;;;;;;;3.80;1.20;;;;;;;;;;4936894;29;20434;-87
2023/12/22 17:15:11;;;;;;;6.00;1.60;;;;;;;;;;4937985;29;20529;-87
2023/12/22 17:18:43;;;;;;;2.20;1.07;;;;;;;;;;4942764;29;20439;-88
2023/12/22 17:26:54;;;;;;;5.13;2.20;;;;;;;;;;4961364;28;20470;-87
2023/12/22 17:29:45;;;;;;;7.00;1.60;;;;;;;;;;4937696;28;20826;-87
2023/12/22 17:32:44;;;;;;;4.00;1.40;;;;;;;;;;4947140;29;20446;-87
2023/12/22 17:35:25;;;;;;;7.70;1.90;;;;;;;;;;4947783;29;20556;-88
2023/12/22 17:38:16;;;;;;;6.60;1.93;;;;;;;;;;4946674;29;20415;-85
2023/12/22 17:41:14;;;;;;;2.13;1.40;;;;;;;;;;4963642;28;20507;-87
2023/12/22 17:44:02;;;;;;;4.27;1.60;;;;;;;;;;4953657;29;20504;-87
2023/12/22 17:47:02;;;;;;;2.73;2.00;;;;;;;;;;4952672;28;20552;-86
2023/12/22 17:50:05;;;;;;;2.37;1.53;;;;;;;;;;4954457;28;20482;-86
2023/12/22 17:53:06;;;;;;;;;;;;;;;;;;;;;
2023/12/22 17:55:57;;;;;;;3.23;1.17;;;;;;;;;;4954662;28;20545;-85
2023/12/22 17:58:38;;;;;;;4.63;2.03;;;;;;;;;;4955698;28;20473;-86
2023/12/22 18:01:29;;;;;;;1.60;1.50;;;;;;;;;;4936930;29;21200;-85
2023/12/22 18:04:21;;;;;;;5.37;1.67;;;;;;;;;;4951296;28;20473;-85
2023/12/22 18:10:16;;;;;;;7.03;1.40;;;;;;;;;;4953377;28;20483;-86
2023/12/22 18:13:17;;;;;;;4.23;1.47;;;;;;;;;;4924254;29;20460;-86
2023/12/22 18:15:51;;;;;;;3.50;1.80;;;;;;;;;;4964469;28;20454;-85
2023/12/22 18:18:41;;;;;;;4.23;1.60;;;;;;;;;;4952837;28;20458;-85
2023/12/22 18:21:28;;;;;;;6.60;1.60;;;;;;;;;;4949511;28;20434;-86
2023/12/22 18:24:15;;;;;;;5.73;1.53;;;;;;;;;;4985715;23;20540;-88
2023/12/22 18:27:16;;;;;;;4.20;1.43;;;;;;;;;;5009805;28;20418;-89
2023/12/22 18:30:12;;;;;;;;;;;;;;;;;;;;;
2023/12/22 18:33:15;;;;;;;2.60;0.93;;;;;;;;;;5003334;28;20529;-87
2023/12/22 18:36:32;;;;;;;2.97;2.30;;;;;;;;;;5011935;28;20456;-87
2023/12/22 18:39:33;;;;;;;;;;;;;;;;;;;;;
2023/12/22 18:42:16;;;;;;;3.40;1.30;;;;;;;;;;5016941;28;20452;-86
2023/12/22 18:45:12;;;;;;;4.43;1.30;;;;;;;;;;4940798;29;20623;-86
2023/12/22 18:55:17;;;;;;;6.77;1.90;;;;;;;;;;4962833;29;20991;-86
2023/12/22 18:58:08;;;;;;;2.70;1.30;;;;;;;;;;4942408;29;20468;-87
2023/12/22 19:01:17;;;;;;;1.60;0.93;;;;;;;;;;5005131;28;20432;-86
2023/12/22 19:04:07;;;;;;;6.17;1.83;;;;;;;;;;5025073;28;20480;-87
2023/12/22 19:06:55;;;;;;;2.27;1.10;;;;;;;;;;4950806;29;20433;-87
2023/12/22 19:09:30;;;;;;;1.90;1.30;;;;;;;;;;4958875;28;20468;-88
2023/12/22 19:12:55;;;;;;;4.27;1.37;;;;;;;;;;4948089;29;20450;-87
2023/12/22 19:15:52;;;;;;;2.70;1.23;;;;;;;;;;4960489;29;20483;-85
2023/12/22 19:21:35;;;;;;;3.30;1.60;;;;;;;;;;4958891;29;20459;-87
2023/12/22 19:24:13;;;;;;;3.03;1.23;;;;;;;;;;4943265;29;20515;-86
2023/12/22 19:26:50;;;;;;;4.67;1.63;;;;;;;;;;4942617;29;20548;-86
2023/12/22 19:33:09;;;;;;;4.60;1.87;;;;;;;;;;4931966;28;20461;-87
2023/12/22 19:35:56;;;;;;;2.43;1.93;;;;;;;;;;4947034;29;20449;-86
2023/12/22 19:39:17;;;;;;;3.50;1.60;;;;;;;;;;4957689;28;20508;-88
2023/12/22 19:42:05;;;;;;;5.00;2.07;;;;;;;;;;4957481;29;20470;-85
2023/12/22 19:44:48;;;;;;;3.80;1.60;;;;;;;;;;5018577;28;20465;-85
2023/12/22 19:47:45;;;;;;;3.30;1.30;;;;;;;;;;5031745;28;20451;-87
2023/12/22 19:50:34;;;;;;;3.40;1.67;;;;;;;;;;5035871;28;20461;-89
2023/12/22 19:56:54;;;;;;;;;;;;;;;;;;;;;
2023/12/22 19:59:52;;;;;;;4.67;1.50;;;;;;;;;;5025517;28;20462;-86
2023/12/22 20:02:33;;;;;;;4.00;1.57;;;;;;;;;;5035285;28;20443;-86
2023/12/22 20:09:46;;;;;;;4.17;1.23;;;;;;;;;;4962579;28;20441;-87
2023/12/22 20:12:48;;;;;;;2.20;0.90;;;;;;;;;;5011501;28;20467;-87
2023/12/22 20:16:18;;;;;;;;;;;;;;;;;;;;;
2023/12/22 20:29:07;;;;;;;10.73;1.30;;;;;;;;;;5017592;28;20450;-86
2023/12/22 20:32:02;;;;;;;4.60;1.33;;;;;;;;;;4945640;29;20545;-87
2023/12/22 20:38:42;;;;;;;4.90;1.20;;;;;;;;;;4998741;28;20457;-87
2023/12/22 20:42:01;;;;;;;2.70;1.27;;;;;;;;;;4964124;28;20489;-86
2023/12/22 20:45:19;;;;;;;;;;;;;;;;;;;;;
2023/12/22 20:48:30;;;;;;;3.00;1.63;;;;;;;;;;4908845;29;20468;-86
2023/12/22 20:51:39;;;;;;;1.70;1.00;;;;;;;;;;4909129;29;21011;-85
2023/12/22 20:57:41;;;;;;;2.23;1.30;;;;;;;;;;4925201;29;20477;-88
2023/12/22 21:00:32;;;;;;;5.57;1.70;;;;;;;;;;4919078;29;20446;-87
2023/12/22 21:03:26;;;;;;;5.13;0.97;;;;;;;;;;4950680;29;20465;-88
2023/12/22 21:06:09;;;;;;;7.77;3.10;;;;;;;;;;4938176;29;20449;-86
2023/12/22 21:09:02;;;;;;;2.43;1.23;;;;;;;;;;4948370;28;20460;-85
2023/12/22 21:20:52;;;;;;;5.00;1.80;;;;;;;;;;4985300;28;20450;-87
2023/12/22 21:23:59;;;;;;;;;;;;;;;;;;;;;
2023/12/22 21:26:59;;;;;;;1.60;1.13;;;;;;;;;;4998045;28;20517;-86
2023/12/22 21:30:09;;;;;;;4.03;1.60;;;;;;;;;;5016600;28;20843;-85
2023/12/22 21:32:44;;;;;;;4.00;1.63;;;;;;;;;;5004628;28;20435;-86
2023/12/22 21:35:53;;;;;;;2.87;1.37;;;;;;;;;;5004774;28;20528;-88
2023/12/22 21:38:57;;;;;;;6.93;2.10;;;;;;;;;;5001421;28;20416;-86
2023/12/22 21:41:41;;;;;;;1.40;0.63;;;;;;;;;;5009290;28;20448;-86